Time;durP1;ratioP1;P1;durP2;ratioP2;P2;SDS_P1;SDS_P2;PMS_P1;PMS_P2;Temp;Humidity;BMP_temperature;BMP_pressure;BME280_temperature;BME280_humidity;BME280_pressure;Samples;Min_cycle;Max_cycle;Signal;HPM_P1;HPM_P2
2021/07/07 00:00:00;;;;;;;1.30;1.27;;;;;;;17.63;99.46;95420.72;5012560;28;20216;-69
2021/07/07 00:02:32;;;;;;;0.80;0.70;;;;;;;17.64;99.63;95422.31;5003440;28;20220;-70
2021/07/07 00:05:00;;;;;;;1.03;0.93;;;;;;;17.66;99.83;95424.78;5007232;28;20713;-69
2021/07/07 00:07:28;;;;;;;1.33;0.93;;;;;;;17.74;99.48;95425.28;5005554;28;20528;-69
2021/07/07 00:09:56;;;;;;;1.43;1.33;;;;;;;17.81;99.55;95417.94;5001739;28;20240;-69
2021/07/07 00:12:24;;;;;;;1.30;1.30;;;;;;;17.85;99.18;95411.09;5012605;28;20655;-70
2021/07/07 00:14:52;;;;;;;1.53;1.07;;;;;;;17.83;98.97;95423.88;5005279;28;20243;-69
2021/07/07 00:17:21;;;;;;;2.03;1.93;;;;;;;17.82;98.96;95419.56;5010810;28;20236;-69
2021/07/07 00:19:50;;;;;;;1.83;1.73;;;;;;;17.79;98.59;95417.38;4999441;28;20240;-69
2021/07/07 00:22:18;;;;;;;3.37;2.40;;;;;;;17.85;98.82;95416.44;5012269;28;20300;-70
2021/07/07 00:24:46;;;;;;;1.40;1.30;;;;;;;17.81;98.70;95417.94;5025922;28;20243;-69
2021/07/07 00:27:14;;;;;;;1.87;1.30;;;;;;;17.80;98.58;95418.97;5014252;28;20228;-69
2021/07/07 00:29:43;;;;;;;4.20;1.50;;;;;;;17.79;98.58;95421.88;5009716;28;20227;-69
2021/07/07 00:32:14;;;;;;;2.07;1.97;;;;;;;17.79;98.59;95422.69;5012227;28;20310;-69
2021/07/07 00:34:42;;;;;;;1.53;1.47;;;;;;;17.79;99.04;95422.69;5022976;28;20223;-69
2021/07/07 00:37:12;;;;;;;1.20;1.07;;;;;;;17.73;99.12;95431.63;4999404;28;20662;-69
2021/07/07 00:39:41;;;;;;;0.90;0.90;;;;;;;17.71;99.23;95431.06;5005128;28;20263;-69
2021/07/07 00:42:10;;;;;;;1.47;1.37;;;;;;;17.66;99.38;95438.13;5007728;28;20227;-69
2021/07/07 00:44:39;;;;;;;1.37;1.37;;;;;;;17.66;99.53;95443.47;5014987;28;20277;-69
2021/07/07 00:47:07;;;;;;;2.13;1.77;;;;;;;17.60;99.49;95443.34;5019751;28;20231;-70
2021/07/07 00:49:35;;;;;;;2.07;1.90;;;;;;;17.57;99.70;95449.16;5017104;28;20318;-69
2021/07/07 00:52:04;;;;;;;1.00;1.00;;;;;;;17.55;99.93;95450.41;5022836;28;20761;-69
2021/07/07 00:54:34;;;;;;;1.27;1.17;;;;;;;17.53;100.00;95452.50;5007043;28;20319;-69
2021/07/07 00:57:04;;;;;;;1.03;0.93;;;;;;;17.51;100.00;95439.41;5004192;28;20235;-69
2021/07/07 00:59:33;;;;;;;1.27;1.27;;;;;;;17.53;100.00;95444.50;5013449;28;20228;-68
2021/07/07 01:02:02;;;;;;;1.57;1.47;;;;;;;17.57;99.87;95456.34;5026101;28;20239;-69
2021/07/07 01:04:31;;;;;;;1.13;1.13;;;;;;;17.59;99.49;95462.25;5007930;28;20255;-70
2021/07/07 01:06:59;;;;;;;1.53;1.43;;;;;;;17.52;99.49;95469.56;5013067;28;20220;-69
2021/07/07 01:09:28;;;;;;;1.23;1.13;;;;;;;17.46;99.80;95465.94;5006692;28;20702;-70
2021/07/07 01:11:58;;;;;;;1.00;1.00;;;;;;;17.42;99.98;95461.31;5014694;28;20227;-69
2021/07/07 01:14:26;;;;;;;1.03;1.03;;;;;;;17.42;100.00;95464.00;5027089;28;20279;-69
2021/07/07 01:16:54;;;;;;;1.13;1.07;;;;;;;17.39;100.00;95467.13;5019820;28;20251;-69
2021/07/07 01:19:23;;;;;;;0.80;0.73;;;;;;;17.39;100.00;95449.28;5017915;28;20322;-69
2021/07/07 01:21:52;;;;;;;0.57;0.57;;;;;;;17.39;100.00;95461.78;5015004;28;20552;-69
2021/07/07 01:24:21;;;;;;;0.80;0.80;;;;;;;17.41;100.00;95470.38;5005308;28;20224;-69
2021/07/07 01:26:49;;;;;;;0.60;0.60;;;;;;;17.42;100.00;95464.81;5007792;28;20231;-69
2021/07/07 01:29:18;;;;;;;0.93;0.90;;;;;;;17.43;100.00;95466.41;5012033;28;20326;-70
2021/07/07 01:31:46;;;;;;;1.20;1.17;;;;;;;17.43;100.00;95473.63;5007359;28;20252;-69
2021/07/07 01:34:15;;;;;;;1.10;1.00;;;;;;;17.43;100.00;95476.28;5004534;28;20230;-69
2021/07/07 01:36:42;;;;;;;3.10;0.97;;;;;;;17.40;100.00;95476.75;4997765;28;20255;-68
2021/07/07 01:39:12;;;;;;;1.07;0.93;;;;;;;17.40;100.00;95474.09;5001272;28;20317;-69
2021/07/07 01:41:40;;;;;;;1.00;1.00;;;;;;;17.40;100.00;95471.41;5011035;28;20692;-69
2021/07/07 01:44:09;;;;;;;0.73;0.73;;;;;;;17.35;100.00;95475.56;5010742;28;20310;-70
2021/07/07 01:46:37;;;;;;;0.90;0.90;;;;;;;17.39;100.00;95485.81;5005279;28;20256;-69
2021/07/07 01:49:06;;;;;;;1.00;0.90;;;;;;;17.38;100.00;95485.00;5007517;28;20814;-69
2021/07/07 01:51:35;;;;;;;0.90;0.87;;;;;;;17.37;100.00;95478.00;5018098;28;20385;-70
2021/07/07 01:54:04;;;;;;;1.40;1.30;;;;;;;17.34;100.00;95486.47;5011316;28;20216;-69
2021/07/07 01:56:34;;;;;;;0.70;0.70;;;;;;;17.30;100.00;95480.81;5010535;28;20263;-69
2021/07/07 01:59:02;;;;;;;1.33;1.20;;;;;;;17.36;100.00;95465.72;5010081;28;20228;-68
2021/07/07 02:01:30;;;;;;;0.83;0.83;;;;;;;17.39;100.00;95453.78;5006006;28;20311;-69
2021/07/07 02:03:58;;;;;;;0.97;0.97;;;;;;;17.34;100.00;95457.94;5006141;28;20231;-69
2021/07/07 02:06:27;;;;;;;3.63;1.37;;;;;;;17.30;100.00;95461.31;5008704;28;20228;-69
2021/07/07 02:08:55;;;;;;;3.70;0.83;;;;;;;17.26;100.00;95460.94;5010134;28;20250;-69
2021/07/07 02:11:23;;;;;;;0.70;0.70;;;;;;;17.23;99.83;95465.94;5011118;28;20230;-69
2021/07/07 02:13:53;;;;;;;0.77;0.77;;;;;;;17.24;99.95;95463.03;5015889;28;20339;-69
2021/07/07 02:16:21;;;;;;;0.70;0.70;;;;;;;17.26;100.00;95465.47;5026101;28;20314;-70
2021/07/07 02:18:50;;;;;;;0.80;0.80;;;;;;;17.23;99.62;95465.94;5014762;28;20477;-69
2021/07/07 02:21:18;;;;;;;0.67;0.67;;;;;;;17.22;99.55;95472.31;5009591;28;20684;-69
2021/07/07 02:23:47;;;;;;;0.60;0.50;;;;;;;17.23;99.70;95482.75;5005232;28;20308;-68
2021/07/07 02:26:15;;;;;;;2.07;1.23;;;;;;;17.26;99.33;95487.63;5010423;28;20310;-69
2021/07/07 02:28:44;;;;;;;0.60;0.60;;;;;;;17.22;99.29;95481.13;5016910;28;20314;-69
2021/07/07 02:31:13;;;;;;;0.67;0.67;;;;;;;17.22;99.51;95486.47;5019050;28;20307;-70
2021/07/07 02:33:42;;;;;;;2.03;1.30;;;;;;;17.21;99.47;95484.84;5005727;28;20613;-69
2021/07/07 02:36:10;;;;;;;0.80;0.80;;;;;;;17.18;99.50;95474.63;5002826;28;20244;-69
2021/07/07 02:38:38;;;;;;;0.60;0.60;;;;;;;17.18;99.79;95487.13;5004470;28;20713;-70
2021/07/07 02:41:07;;;;;;;0.60;0.60;;;;;;;17.16;99.82;95487.38;4999853;28;20740;-69
2021/07/07 02:43:35;;;;;;;0.60;0.60;;;;;;;17.20;99.84;95487.75;5016887;28;20748;-69
2021/07/07 02:46:03;;;;;;;0.60;0.60;;;;;;;17.21;99.65;95482.19;5011621;28;20311;-69
2021/07/07 02:48:33;;;;;;;1.50;0.60;;;;;;;17.17;99.06;95489.00;5004984;28;20580;-69
2021/07/07 02:51:01;;;;;;;0.77;0.77;;;;;;;17.14;99.29;95478.00;5024016;28;20281;-69
2021/07/07 02:53:29;;;;;;;0.50;0.50;;;;;;;17.11;99.38;95468.59;5008752;28;20247;-70
2021/07/07 02:55:57;;;;;;;0.40;0.40;;;;;;;17.08;99.49;95471.69;5007218;28;20232;-69
2021/07/07 02:58:26;;;;;;;3.10;0.50;;;;;;;17.07;99.90;95462.09;5014211;28;20334;-69
2021/07/07 03:00:54;;;;;;;0.40;0.40;;;;;;;17.08;99.96;95469.03;5015350;28;20311;-67
2021/07/07 03:03:23;;;;;;;0.30;0.30;;;;;;;17.07;99.88;95472.75;5008055;28;20262;-66
2021/07/07 03:05:55;;;;;;;0.70;0.70;;;;;;;17.08;99.72;95465.56;5011795;28;20225;-67
2021/07/07 03:08:26;;;;;;;1.50;0.90;;;;;;;17.04;99.66;95473.22;5003517;28;20608;-67
2021/07/07 03:10:55;;;;;;;0.37;0.37;;;;;;;17.08;99.76;95481.56;5002488;28;20728;-67
2021/07/07 03:13:25;;;;;;;10.33;3.30;;;;;;;17.05;99.41;95485.50;5007635;28;20248;-67
2021/07/07 03:15:53;;;;;;;0.30;0.30;;;;;;;16.99;99.54;95491.72;5014953;28;20230;-67
2021/07/07 03:18:22;;;;;;;0.40;0.40;;;;;;;16.95;99.38;95491.38;5024642;28;20230;-66
2021/07/07 03:20:53;;;;;;;0.67;0.67;;;;;;;16.93;99.54;95487.34;5008239;28;20739;-67
2021/07/07 03:23:23;;;;;;;0.40;0.40;;;;;;;16.91;99.66;95489.38;5017134;28;20220;-67
2021/07/07 03:25:53;;;;;;;0.47;0.47;;;;;;;16.91;100.00;95495.53;5007906;28;20682;-67
2021/07/07 03:28:23;;;;;;;1.20;0.50;;;;;;;16.93;100.00;95498.00;5010300;28;20314;-67
2021/07/07 03:30:52;;;;;;;0.57;0.30;;;;;;;16.91;100.00;95486.72;5015293;28;20308;-67
2021/07/07 03:33:21;;;;;;;1.00;0.40;;;;;;;16.92;99.99;95486.53;5004647;28;20665;-67
2021/07/07 03:35:49;;;;;;;0.40;0.40;;;;;;;16.92;99.77;95485.72;5002742;28;20251;-66
2021/07/07 03:38:18;;;;;;;0.30;0.30;;;;;;;16.91;100.00;95481.41;4996150;28;20301;-67
2021/07/07 03:40:46;;;;;;;0.50;0.47;;;;;;;16.92;100.00;95504.38;5004014;28;20599;-67
2021/07/07 03:43:15;;;;;;;0.43;0.40;;;;;;;16.85;99.86;95516.97;5015658;28;20314;-67
2021/07/07 03:45:43;;;;;;;1.20;0.83;;;;;;;16.82;99.73;95531.53;5024358;28;20737;-67
2021/07/07 03:48:11;;;;;;;0.53;0.53;;;;;;;16.84;99.76;95531.34;5024215;28;20322;-67
2021/07/07 03:50:41;;;;;;;0.97;0.50;;;;;;;16.81;99.61;95537.09;5007731;28;20298;-67
2021/07/07 03:53:09;;;;;;;0.40;0.40;;;;;;;16.79;99.96;95534.66;5012399;28;20238;-66
2021/07/07 03:55:39;;;;;;;0.50;0.50;;;;;;;16.78;99.88;95544.50;5012770;28;20252;-67
2021/07/07 03:58:07;;;;;;;1.03;0.53;;;;;;;16.82;99.72;95549.38;5015923;28;20297;-66
2021/07/07 04:00:35;;;;;;;0.60;0.60;;;;;;;16.95;99.31;95567.88;5006512;28;20267;-67
2021/07/07 04:03:06;;;;;;;0.80;0.80;;;;;;;16.92;99.36;95565.69;5014437;28;20243;-66
2021/07/07 04:05:35;;;;;;;2.00;1.17;;;;;;;16.87;98.93;95562.84;5019267;28;20762;-66
2021/07/07 04:08:02;;;;;;;0.40;0.30;;;;;;;16.80;99.23;95557.59;5008342;28;20297;-67
2021/07/07 04:10:31;;;;;;;0.20;0.20;;;;;;;16.76;99.29;95559.09;5005994;28;20352;-67
2021/07/07 04:13:00;;;;;;;0.80;0.30;;;;;;;16.80;99.39;95562.13;5017235;28;20588;-67
2021/07/07 04:15:28;;;;;;;0.43;0.40;;;;;;;16.83;99.51;95559.03;5027115;28;20227;-67
2021/07/07 04:17:56;;;;;;;0.40;0.30;;;;;;;16.84;99.49;95555.31;5022308;28;20309;-67
2021/07/07 04:20:25;;;;;;;0.30;0.30;;;;;;;16.85;99.65;95562.28;5009571;28;20228;-67
2021/07/07 04:22:53;;;;;;;0.67;0.67;;;;;;;16.87;99.51;95569.00;5024857;28;20273;-67
2021/07/07 04:25:21;;;;;;;0.40;0.40;;;;;;;16.86;99.36;95566.56;5016666;28;20311;-67
2021/07/07 04:27:49;;;;;;;0.37;0.33;;;;;;;16.83;99.75;95553.69;5019254;28;20243;-67
2021/07/07 04:30:20;;;;;;;0.60;0.60;;;;;;;16.83;99.65;95540.38;5010862;28;20221;-66
2021/07/07 04:32:49;;;;;;;0.30;0.30;;;;;;;16.86;100.00;95546.06;5016289;28;20227;-67
2021/07/07 04:35:18;;;;;;;0.63;0.53;;;;;;;16.84;99.98;95542.81;4998490;28;20232;-67
2021/07/07 04:37:49;;;;;;;0.57;0.57;;;;;;;16.86;100.00;95547.91;5002441;28;20270;-67
2021/07/07 04:40:19;;;;;;;0.70;0.70;;;;;;;16.91;100.00;95548.03;5002395;28;20229;-67
2021/07/07 04:42:47;;;;;;;6.13;0.97;;;;;;;16.90;100.00;95546.41;5013402;28;20290;-67
2021/07/07 04:45:17;;;;;;;0.90;0.90;;;;;;;16.90;99.87;95551.75;5011999;28;20219;-67
2021/07/07 04:47:47;;;;;;;0.70;0.63;;;;;;;16.91;99.75;95538.19;4994244;28;20259;-66
2021/07/07 04:50:17;;;;;;;0.50;0.50;;;;;;;16.96;99.38;95535.66;5007324;28;20693;-67
2021/07/07 04:52:45;;;;;;;3.90;1.70;;;;;;;17.01;99.54;95540.31;5000401;28;20859;-67
2021/07/07 04:55:15;;;;;;;1.20;0.57;;;;;;;17.03;98.83;95554.25;5004302;28;20368;-67
2021/07/07 04:57:43;;;;;;;2.63;1.37;;;;;;;17.03;98.73;95546.25;5014178;28;20220;-66
2021/07/07 05:00:14;;;;;;;2.23;0.30;;;;;;;17.03;98.56;95546.25;5006557;28;20213;-67
2021/07/07 05:02:43;;;;;;;3.03;1.13;;;;;;;17.03;98.32;95562.25;5005527;28;20290;-67
2021/07/07 05:05:15;;;;;;;0.87;0.47;;;;;;;17.03;98.19;95562.25;5008572;28;20216;-66
2021/07/07 05:07:43;;;;;;;0.50;0.50;;;;;;;16.95;98.52;95554.56;4997967;28;20319;-64
2021/07/07 05:10:13;;;;;;;5.20;1.30;;;;;;;16.95;98.45;95559.88;5001108;28;20224;-66
2021/07/07 05:12:42;;;;;;;2.30;0.50;;;;;;;16.93;98.19;95567.31;5011948;28;20583;-67
2021/07/07 05:15:12;;;;;;;0.30;0.30;;;;;;;16.91;98.27;95558.69;5003798;28;20307;-67
2021/07/07 05:17:41;;;;;;;0.50;0.50;;;;;;;16.94;98.56;95568.91;5005378;28;20304;-66
2021/07/07 05:20:11;;;;;;;0.50;0.37;;;;;;;16.89;98.43;95568.78;5022254;28;20345;-66
2021/07/07 05:22:43;;;;;;;0.70;0.70;;;;;;;16.89;98.95;95563.44;5000647;28;20217;-67
2021/07/07 05:25:11;;;;;;;0.43;0.40;;;;;;;16.88;98.85;95564.47;4996178;28;20220;-67
2021/07/07 05:27:40;;;;;;;1.57;0.43;;;;;;;16.96;99.13;95572.16;5004831;28;20699;-66
2021/07/07 05:30:10;;;;;;;3.07;0.50;;;;;;;16.98;98.78;95575.41;4995969;28;20251;-66
2021/07/07 05:32:38;;;;;;;26.03;1.60;;;;;;;16.98;98.95;95583.41;4989765;28;20320;-67
2021/07/07 05:35:08;;;;;;;1.43;0.77;;;;;;;16.94;98.79;95579.59;5009273;28;20270;-67
2021/07/07 05:37:36;;;;;;;3.60;0.87;;;;;;;16.95;98.86;95581.22;4999257;28;20263;-67
2021/07/07 05:40:07;;;;;;;4.33;0.40;;;;;;;16.94;98.92;95584.91;5001192;28;20254;-66
2021/07/07 05:42:35;;;;;;;0.50;0.40;;;;;;;16.95;99.01;95578.53;4997548;28;20250;-66
2021/07/07 05:45:04;;;;;;;0.30;0.30;;;;;;;17.00;99.09;95581.34;5002580;28;20314;-66
2021/07/07 05:47:32;;;;;;;2.30;0.60;;;;;;;17.02;99.41;95589.94;5009728;28;20366;-66
2021/07/07 05:50:00;;;;;;;0.90;0.83;;;;;;;17.06;99.16;95604.44;4999123;28;20312;-66
2021/07/07 05:52:28;;;;;;;1.90;0.77;;;;;;;17.07;99.02;95598.06;4997528;28;20311;-66
2021/07/07 05:54:57;;;;;;;0.53;0.50;;;;;;;17.10;99.19;95592.28;4996478;28;20247;-66
2021/07/07 05:57:37;;;;;;;0.50;0.30;;;;;;;17.12;99.34;95600.88;5005535;28;20224;-66
2021/07/07 06:00:09;;;;;;;0.47;0.40;;;;;;;17.16;99.35;95599.38;5017668;28;20718;-66
2021/07/07 06:02:39;;;;;;;0.30;0.30;;;;;;;17.17;99.16;95595.66;5007600;28;20228;-66
2021/07/07 06:05:08;;;;;;;0.50;0.30;;;;;;;17.19;99.02;95576.75;5016196;28;20222;-66
2021/07/07 06:07:39;;;;;;;0.60;0.60;;;;;;;17.23;99.07;95568.09;5011163;28;20709;-66
2021/07/07 06:10:09;;;;;;;3.90;0.50;;;;;;;17.27;99.22;95569.25;5010851;28;20316;-66
2021/07/07 06:12:38;;;;;;;0.70;0.67;;;;;;;17.33;99.08;95572.88;5017270;28;20283;-66
2021/07/07 06:15:08;;;;;;;0.20;0.20;;;;;;;17.38;98.53;95574.88;5009359;28;20307;-66
2021/07/07 06:17:37;;;;;;;0.70;0.50;;;;;;;17.45;98.41;95570.22;5016850;28;20235;-66
2021/07/07 06:20:08;;;;;;;0.40;0.40;;;;;;;17.51;98.27;95582.66;5008662;28;20306;-65
2021/07/07 06:22:37;;;;;;;2.20;0.80;;;;;;;17.51;98.01;95590.66;5025231;28;20314;-66
2021/07/07 06:25:07;;;;;;;1.17;1.17;;;;;;;17.54;98.12;95595.53;5016959;28;20532;-65
2021/07/07 06:27:39;;;;;;;3.23;0.40;;;;;;;17.53;98.00;95600.06;5011794;28;20244;-65
2021/07/07 06:30:11;;;;;;;1.73;1.20;;;;;;;17.53;97.67;95600.06;5014184;28;20239;-66
2021/07/07 06:32:39;;;;;;;0.93;0.60;;;;;;;17.54;97.16;95607.03;5021743;28;20277;-66
2021/07/07 06:35:08;;;;;;;0.90;0.70;;;;;;;17.55;96.99;95605.16;5015646;28;20645;-66
2021/07/07 06:37:37;;;;;;;0.60;0.60;;;;;;;17.53;97.28;95610.72;5001077;28;20255;-66
2021/07/07 06:40:06;;;;;;;0.50;0.50;;;;;;;17.55;97.44;95613.16;5008032;28;20216;-67
2021/07/07 06:42:34;;;;;;;2.13;0.50;;;;;;;17.59;97.60;95615.16;5012380;28;20306;-67
2021/07/07 06:45:04;;;;;;;0.53;0.50;;;;;;;17.59;97.62;95617.03;5024680;28;20491;-67
2021/07/07 06:47:34;;;;;;;0.40;0.40;;;;;;;17.59;97.49;95617.03;5017179;28;20354;-67
2021/07/07 06:50:04;;;;;;;1.23;0.90;;;;;;;17.60;97.44;95615.97;5010080;28;20238;-67
2021/07/07 06:52:32;;;;;;;0.47;0.47;;;;;;;17.62;97.19;95619.22;5016594;28;20654;-67
2021/07/07 06:55:00;;;;;;;1.07;0.60;;;;;;;17.60;97.12;95622.13;5018667;28;20263;-67
2021/07/07 06:57:34;;;;;;;0.60;0.47;;;;;;;17.58;97.23;95615.41;4999754;28;20247;-66
2021/07/07 07:00:06;;;;;;;0.33;0.33;;;;;;;17.60;97.37;95621.31;5021214;28;20301;-67
2021/07/07 07:02:36;;;;;;;0.40;0.40;;;;;;;17.62;97.29;95625.38;5018814;28;20330;-68
2021/07/07 07:05:06;;;;;;;1.67;0.80;;;;;;;17.58;97.17;95618.88;5009725;28;20294;-66
2021/07/07 07:07:35;;;;;;;0.57;0.30;;;;;;;17.59;97.46;95625.03;5002442;28;20252;-67
2021/07/07 07:10:04;;;;;;;0.40;0.40;;;;;;;17.62;97.41;95629.91;5009647;28;20315;-66
2021/07/07 07:12:32;;;;;;;0.93;0.93;;;;;;;17.66;97.34;95620.41;5006428;28;20283;-67
2021/07/07 07:15:00;;;;;;;0.70;0.70;;;;;;;17.68;96.94;95631.66;5019093;28;20634;-67
2021/07/07 07:17:28;;;;;;;0.30;0.20;;;;;;;17.72;97.25;95630.19;5011509;28;20231;-67
2021/07/07 07:19:58;;;;;;;0.23;0.20;;;;;;;17.77;97.19;95648.19;5015029;28;20308;-68
2021/07/07 07:22:26;;;;;;;1.40;1.30;;;;;;;17.81;97.19;95644.00;5016010;28;21199;-67
2021/07/07 07:24:54;;;;;;;3.07;2.87;;;;;;;17.82;96.67;95646.44;5013964;28;20310;-67
2021/07/07 07:27:22;;;;;;;2.20;2.10;;;;;;;17.87;96.70;95643.91;5001443;28;20471;-67
2021/07/07 07:29:49;;;;;;;1.10;1.10;;;;;;;17.89;96.38;95655.16;5016828;28;20559;-67
2021/07/07 07:32:18;;;;;;;1.40;1.20;;;;;;;17.95;96.07;95655.31;5004693;28;20249;-67
2021/07/07 07:34:46;;;;;;;11.50;10.03;;;;;;;17.97;95.87;95662.03;5010313;28;20220;-67
2021/07/07 07:37:22;;;;;;;11.23;9.70;;;;;;;17.99;95.92;95661.81;4997957;28;20573;-67
2021/07/07 07:39:52;;;;;;;5.20;4.63;;;;;;;17.99;96.00;95661.81;5003102;28;20244;-67
2021/07/07 07:42:20;;;;;;;3.73;3.43;;;;;;;18.00;96.19;95668.78;5008888;28;20419;-67
2021/07/07 07:44:49;;;;;;;2.70;1.50;;;;;;;18.02;95.56;95672.84;5006536;28;20708;-68
2021/07/07 07:47:18;;;;;;;1.37;1.13;;;;;;;18.06;95.22;95676.69;5008296;28;20306;-67
2021/07/07 07:50:07;;;;;;;4.53;4.13;;;;;;;18.12;94.48;95681.13;5007454;28;20235;-67
2021/07/07 07:52:37;;;;;;;12.07;8.60;;;;;;;18.12;94.46;95674.97;5019442;28;20779;-66
2021/07/07 07:55:06;;;;;;;8.80;8.00;;;;;;;18.16;94.66;95684.13;5017308;28;20236;-66
2021/07/07 07:57:36;;;;;;;7.87;7.27;;;;;;;18.23;94.35;95679.50;5004058;28;20228;-67
2021/07/07 08:00:07;;;;;;;5.93;5.33;;;;;;;18.22;94.09;95685.88;5014809;28;20215;-67
2021/07/07 08:02:41;;;;;;;6.07;4.97;;;;;;;18.25;93.86;95688.09;5010187;28;20289;-67
2021/07/07 08:05:10;;;;;;;2.07;1.30;;;;;;;18.28;94.08;95687.63;5009843;28;20239;-67
2021/07/07 08:07:40;;;;;;;1.80;1.73;;;;;;;18.30;93.99;95692.75;5008136;28;20315;-66
2021/07/07 08:10:10;;;;;;;0.30;0.30;;;;;;;18.28;94.08;95698.31;5018956;28;20240;-66
2021/07/07 08:12:38;;;;;;;0.47;0.47;;;;;;;18.29;94.20;95705.28;5007177;28;20239;-67
2021/07/07 08:15:08;;;;;;;1.13;1.13;;;;;;;18.30;94.28;95712.25;5015200;28;20226;-67
2021/07/07 08:17:36;;;;;;;3.07;0.73;;;;;;;18.34;94.88;95710.75;5012817;28;20413;-67
2021/07/07 08:20:07;;;;;;;1.20;1.10;;;;;;;18.38;94.95;95717.28;5000770;28;20259;-67
2021/07/07 08:22:35;;;;;;;0.53;0.53;;;;;;;18.40;95.20;95723.19;5018740;28;20370;-67
2021/07/07 08:25:06;;;;;;;1.83;0.67;;;;;;;18.44;95.26;95723.53;5015955;28;20224;-67
2021/07/07 08:27:35;;;;;;;0.50;0.50;;;;;;;18.46;95.22;95724.91;5007732;28;20242;-67
2021/07/07 08:30:03;;;;;;;0.37;0.37;;;;;;;18.50;95.20;95727.16;5004598;28;20224;-67
2021/07/07 08:32:31;;;;;;;0.50;0.40;;;;;;;18.52;94.91;95731.22;5005587;28;20369;-66
2021/07/07 08:35:00;;;;;;;0.53;0.53;;;;;;;18.55;94.71;95729.91;5000147;28;20216;-67
2021/07/07 08:37:28;;;;;;;0.33;0.30;;;;;;;18.58;94.42;95732.16;5001197;28;20224;-66
2021/07/07 08:39:56;;;;;;;0.50;0.50;;;;;;;18.61;94.27;95737.03;5008568;28;20223;-67
2021/07/07 08:42:25;;;;;;;0.50;0.50;;;;;;;18.63;94.25;95740.28;5015298;28;20394;-67
2021/07/07 08:44:54;;;;;;;0.70;0.70;;;;;;;18.65;94.03;95743.56;5014074;28;20220;-67
2021/07/07 08:47:22;;;;;;;0.30;0.30;;;;;;;18.68;93.99;95754.59;5013863;28;20307;-67
2021/07/07 08:49:50;;;;;;;0.63;0.63;;;;;;;18.69;93.95;95760.78;5010365;28;20306;-67
2021/07/07 08:52:18;;;;;;;3.23;0.47;;;;;;;18.65;93.63;95768.44;5016128;28;20302;-66
2021/07/07 08:54:47;;;;;;;1.40;0.40;;;;;;;18.65;93.57;95756.91;5009140;28;20735;-68
2021/07/07 08:57:15;;;;;;;0.20;0.20;;;;;;;18.68;93.56;95767.16;5005364;28;20314;-66
2021/07/07 08:59:45;;;;;;;0.37;0.37;;;;;;;18.54;94.09;95765.72;5014292;28;20252;-67
2021/07/07 09:02:13;;;;;;;1.70;0.40;;;;;;;18.64;93.00;95765.94;5009607;28;20252;-67
2021/07/07 09:04:44;;;;;;;2.60;0.77;;;;;;;18.66;92.42;95767.41;5007398;28;20227;-67
2021/07/07 09:07:15;;;;;;;0.93;0.67;;;;;;;18.47;92.71;95766.66;5000344;28;20282;-67
2021/07/07 09:09:45;;;;;;;2.13;0.67;;;;;;;18.51;92.34;95771.53;5013894;28;20631;-66
2021/07/07 09:12:19;;;;;;;3.30;0.57;;;;;;;18.47;92.48;95777.34;5009707;28;20325;-67
2021/07/07 09:14:53;;;;;;;2.07;0.40;;;;;;;18.52;92.27;95781.16;5015365;28;20234;-67
2021/07/07 09:17:21;;;;;;;0.93;0.93;;;;;;;18.44;92.78;95775.13;5006978;28;20226;-67
2021/07/07 09:19:50;;;;;;;0.53;0.47;;;;;;;18.30;93.01;95792.41;5014121;28;20804;-68
2021/07/07 09:22:24;;;;;;;1.00;0.50;;;;;;;18.25;93.56;95789.59;5009995;28;20215;-65
2021/07/07 09:25:01;;;;;;;3.93;1.27;;;;;;;18.19;94.09;95790.50;5017054;28;20274;-67
2021/07/07 09:27:34;;;;;;;1.50;0.97;;;;;;;18.19;94.63;95785.97;5008810;28;20246;-67
2021/07/07 09:30:07;;;;;;;0.40;0.40;;;;;;;18.37;94.32;95782.41;5023061;28;20311;-67
2021/07/07 09:32:45;;;;;;;0.70;0.60;;;;;;;18.50;93.46;95788.63;5005781;28;20600;-67
2021/07/07 09:35:18;;;;;;;0.60;0.60;;;;;;;18.63;93.19;95786.53;4996870;28;20283;-67
2021/07/07 09:37:50;;;;;;;0.83;0.83;;;;;;;18.73;92.98;95792.13;5000518;28;20252;-67
2021/07/07 09:40:19;;;;;;;0.50;0.50;;;;;;;18.85;91.85;95791.34;5010006;28;20271;-67
2021/07/07 09:42:48;;;;;;;0.60;0.60;;;;;;;18.90;91.18;95796.81;5012309;28;20258;-66
2021/07/07 09:45:22;;;;;;;0.87;0.87;;;;;;;18.83;91.20;95791.56;5026441;28;20242;-66
2021/07/07 09:47:51;;;;;;;0.50;0.47;;;;;;;18.90;91.50;95781.56;5020405;28;20468;-67
2021/07/07 09:50:19;;;;;;;3.40;0.50;;;;;;;18.91;90.88;95782.38;5015992;28;20220;-67
2021/07/07 09:52:48;;;;;;;0.30;0.30;;;;;;;18.89;90.71;95790.63;5016519;28;20712;-67
2021/07/07 09:55:16;;;;;;;0.47;0.47;;;;;;;18.91;90.69;95793.88;5016278;28;21010;-67
2021/07/07 09:57:45;;;;;;;0.40;0.40;;;;;;;18.96;90.80;95791.34;5007104;28;20520;-67
2021/07/07 10:00:15;;;;;;;0.33;0.33;;;;;;;18.98;90.52;95794.59;5018777;28;20270;-67
2021/07/07 10:02:48;;;;;;;0.40;0.40;;;;;;;18.99;90.29;95801.56;5013766;28;20244;-66
2021/07/07 10:05:20;;;;;;;0.93;0.73;;;;;;;19.02;90.10;95792.28;5015520;28;20256;-68
2021/07/07 10:07:50;;;;;;;0.67;0.53;;;;;;;19.06;90.32;95784.59;5002544;28;20501;-67
2021/07/07 10:10:20;;;;;;;0.60;0.60;;;;;;;19.04;90.02;95774.94;5007760;28;20885;-67
2021/07/07 10:12:49;;;;;;;0.60;0.60;;;;;;;19.04;89.71;95787.50;5016234;28;20220;-66
2021/07/07 10:15:19;;;;;;;0.80;0.80;;;;;;;19.03;89.66;95796.59;5006328;28;20224;-68
2021/07/07 10:17:48;;;;;;;1.63;1.10;;;;;;;18.99;89.62;95790.06;5005825;28;20250;-67
2021/07/07 10:20:16;;;;;;;0.93;0.60;;;;;;;18.95;89.73;95784.38;5014475;28;20243;-67
2021/07/07 10:22:50;;;;;;;0.30;0.30;;;;;;;18.92;89.68;95784.81;5016941;28;20224;-67
2021/07/07 10:25:22;;;;;;;0.50;0.50;;;;;;;18.93;89.77;95780.31;5004433;28;20232;-67
2021/07/07 10:27:52;;;;;;;0.30;0.30;;;;;;;18.94;89.77;95781.94;5011110;28;20303;-67
2021/07/07 10:30:22;;;;;;;0.33;0.33;;;;;;;18.96;89.83;95780.66;5020617;28;20247;-67
2021/07/07 10:33:08;;;;;;;0.40;0.40;;;;;;;18.94;89.79;95780.06;5006187;28;20224;-66
2021/07/07 10:35:36;;;;;;;0.40;0.40;;;;;;;18.94;89.57;95785.44;4997049;28;20328;-67
2021/07/07 10:38:05;;;;;;;0.30;0.30;;;;;;;18.97;89.58;95776.94;4998629;28;20319;-67
2021/07/07 10:40:37;;;;;;;0.50;0.50;;;;;;;19.00;90.09;95781.78;4999049;28;20316;-67
2021/07/07 10:43:06;;;;;;;0.57;0.57;;;;;;;19.03;90.17;95786.69;5020277;28;20307;-67
2021/07/07 10:45:35;;;;;;;0.40;0.40;;;;;;;18.98;89.57;95794.59;5005450;28;20240;-67
2021/07/07 10:48:25;;;;;;;0.40;0.40;;;;;;;18.95;89.35;95796.94;5004322;28;20243;-67
2021/07/07 10:50:54;;;;;;;0.70;0.70;;;;;;;18.96;89.46;95788.66;5009568;28;20220;-67
2021/07/07 10:53:29;;;;;;;0.50;0.50;;;;;;;18.98;89.06;95789.25;5018195;28;20843;-67
2021/07/07 10:55:59;;;;;;;0.57;0.57;;;;;;;19.01;89.52;95791.44;5013604;28;20303;-67
2021/07/07 10:58:33;;;;;;;0.40;0.40;;;;;;;19.01;89.56;95799.47;5010854;28;20808;-68
2021/07/07 11:01:02;;;;;;;0.50;0.50;;;;;;;18.98;89.13;95794.59;5016261;28;20310;-68
2021/07/07 11:03:36;;;;;;;0.43;0.43;;;;;;;18.99;89.51;95795.41;5007645;28;20248;-67
2021/07/07 11:06:25;;;;;;;0.60;0.60;;;;;;;19.00;89.84;95800.53;5011992;28;20266;-67
2021/07/07 11:09:08;;;;;;;0.40;0.40;;;;;;;18.97;89.52;95789.47;5010526;28;20228;-67
2021/07/07 11:11:36;;;;;;;0.30;0.30;;;;;;;18.91;89.04;95791.22;5002885;28;20305;-67
2021/07/07 11:14:11;;;;;;;0.40;0.40;;;;;;;18.91;89.19;95785.06;5014367;28;20220;-67
2021/07/07 11:16:47;;;;;;;0.77;0.50;;;;;;;18.92;89.52;95789.34;5006082;28;20316;-66
2021/07/07 11:19:46;;;;;;;0.40;0.40;;;;;;;18.87;89.42;95806.09;5009711;28;20247;-67
2021/07/07 11:22:16;;;;;;;2.50;0.73;;;;;;;18.87;89.14;95803.44;5012129;28;20310;-67
2021/07/07 11:24:47;;;;;;;0.60;0.60;;;;;;;18.87;89.39;95798.09;5015852;28;20343;-67
2021/07/07 11:27:15;;;;;;;0.50;0.50;;;;;;;18.89;89.90;95806.69;5008342;28;20232;-67
2021/07/07 11:29:44;;;;;;;1.27;1.17;;;;;;;18.93;89.70;95802.53;5016159;28;20223;-67
2021/07/07 11:32:36;;;;;;;0.73;0.73;;;;;;;18.90;88.46;95808.31;5001921;28;20335;-67
2021/07/07 11:35:09;;;;;;;0.70;0.70;;;;;;;18.93;88.41;95797.16;5010428;28;20216;-67
2021/07/07 11:37:37;;;;;;;0.63;0.50;;;;;;;19.01;88.97;95793.31;5002420;28;20243;-67
2021/07/07 11:40:11;;;;;;;0.40;0.40;;;;;;;19.14;89.08;95793.09;5008729;28;20294;-67
2021/07/07 11:42:53;;;;;;;0.70;0.70;;;;;;;19.29;89.51;95795.25;5008709;28;20510;-66